Campanya meteocatpedra

Dades de l'estació automàtica el Masroig

?
?
Resum diari 20:30 TU
Dades diàries de l'estació meteorològica
Temperatura mitjana 21.4 °C
Temperatura màxima 31.6 °C 14:59 TU
Temperatura mínima 13.1 °C 5:51 TU
Humitat relativa mitjana 72%
Precipitació acumulada 0.0 mm
Ratxa màxima del vent (2 m) 17.3 km/h - 312º 12:21 TU

El tram horari està expressat en Temps Universal (TU). Cal sumar una hora en horari d'hivern i dues en horari d'estiu per passar a l'hora oficial.

el Masroig

Metadades estació meteorol´gica
Municipi El Masroig
Comarca Priorat
Altitud 141 m
Data alta 20.06.2000
Estat actual Operativa
Dades de període
Període
TU
TM
°C
TX
°C
TN
°C
HRM
%
PPT
mm
VVM (2 m)
km/h
DVM (2 m)
graus
VVX (2 m)
km/h
00:00 - 00:30 15.8 16.0 15.6 96 0.0 2.9 126 6.1
00:30 - 01:00 15.9 16.2 15.8 95 0.0 4.0 122 7.9
01:00 - 01:30 15.6 15.9 15.4 96 0.0 2.9 131 4.7
01:30 - 02:00 15.0 15.4 14.7 96 0.0 1.8 134 4.0
02:00 - 02:30 14.8 14.9 14.6 97 0.0 2.9 123 4.7
02:30 - 03:00 14.7 14.9 14.4 98 0.0 2.5 119 4.0
03:00 - 03:30 14.2 14.3 14.0 97 0.0 1.8 127 3.6
03:30 - 04:00 14.0 14.3 13.8 98 0.0 2.9 118 5.4
04:00 - 04:30 14.1 14.2 13.9 98 0.0 2.5 119 4.7
04:30 - 05:00 13.9 14.4 13.6 98 0.0 1.4 118 3.6
05:00 - 05:30 13.7 13.8 13.5 98 0.0 1.8 117 5.0
05:30 - 06:00 13.3 13.7 13.1 98 0.0 1.4 116 3.6
06:00 - 06:30 13.6 14.2 13.3 99 0.0 2.2 113 5.4
06:30 - 07:00 14.8 15.5 14.1 98 0.0 1.1 302 3.2
07:00 - 07:30 15.6 16.1 15.4 95 0.0 1.4 195 4.3
07:30 - 08:00 16.5 17.1 16.0 95 0.0 4.0 126 7.9
08:00 - 08:30 17.9 18.9 17.1 92 0.0 2.2 161 5.4
08:30 - 09:00 19.5 21.6 18.6 84 0.0 1.8 243 4.7
09:00 - 09:30 21.4 21.8 21.0 74 0.0 3.6 272 8.6
09:30 - 10:00 22.7 24.0 21.9 68 0.0 3.6 261 8.3
10:00 - 10:30 24.6 25.3 24.0 61 0.0 2.9 231 8.3
10:30 - 11:00 25.9 26.5 24.6 56 0.0 3.2 224 8.6
11:00 - 11:30 27.0 27.8 26.2 50 0.0 4.0 243 11.5
11:30 - 12:00 28.2 29.1 27.2 43 0.0 3.6 242 13.0
12:00 - 12:30 29.1 29.6 28.7 37 0.0 6.8 301 17.3
12:30 - 13:00 29.1 29.5 28.6 39 0.0 6.8 299 15.5
13:00 - 13:30 29.8 30.3 29.2 37 0.0 4.3 264 12.6
13:30 - 14:00 30.4 30.9 29.9 35 0.0 4.7 276 10.8
14:00 - 14:30 30.4 30.7 30.0 34 0.0 4.0 205 10.4
14:30 - 15:00 30.7 31.6 30.2 33 0.0 4.0 200 10.1
15:00 - 15:30 31.2 31.6 30.8 33 0.0 5.0 256 14.4
15:30 - 16:00 30.4 30.9 29.3 41 0.0 7.9 278 16.9
16:00 - 16:30 28.6 29.3 28.0 47 0.0 7.9 263 16.9
16:30 - 17:00 27.5 28.0 26.6 51 0.0 5.0 181 13.3
17:00 - 17:30 26.2 26.6 25.7 56 0.0 5.4 147 10.8
17:30 - 18:00 25.0 25.7 24.2 60 0.0 4.0 128 7.6
18:00 - 18:30 23.5 24.1 22.9 67 0.0 5.4 105 9.0
18:30 - 19:00 22.5 22.9 21.9 71 0.0 5.0 107 8.6
19:00 - 19:30 21.6 22.1 21.0 74 0.0 2.2 92 7.9
19:30 - 20:00 20.9 21.3 20.6 77 0.0 1.4 3 3.2
20:00 - 20:30 19.8 20.8 19.2 80 0.0 0.7 154 2.9
20:30 - 21:00 18.9 19.3 18.6 83 0.0 1.1 122 2.9

Les dades en taronja només han passat un control de qualitat automàtic. Resta pendent la seva validació definitiva.